Time;durP1;ratioP1;P1;durP2;ratioP2;P2;SDS_P1;SDS_P2;PMS_P1;PMS_P2;Temp;Humidity;BMP_temperature;BMP_pressure;BME280_temperature;BME280_humidity;BME280_pressure;Samples;Min_cycle;Max_cycle;Signal;HPM_P1;HPM_P2
2024/02/14 00:02:07;;;;;;;7.80;1.90;;;;;;;;;;5029623;28;20385;-68
2024/02/14 00:04:33;;;;;;;14.63;1.63;;;;;;;;;;5030567;28;20041;-68
2024/02/14 00:06:58;;;;;;;12.18;2.53;;;;;;;;;;5028455;28;20083;-68
2024/02/14 00:09:23;;;;;;;11.85;2.03;;;;;;;;;;5026231;28;20104;-68
2024/02/14 00:11:49;;;;;;;4.90;1.15;;;;;;;;;;5026532;28;20037;-68
2024/02/14 00:14:14;;;;;;;8.43;2.22;;;;;;;;;;5031708;28;20068;-67
2024/02/14 00:16:39;;;;;;;5.95;2.00;;;;;;;;;;5024706;28;20040;-68
2024/02/14 00:19:05;;;;;;;10.20;1.40;;;;;;;;;;5025174;28;20464;-68
2024/02/14 00:21:31;;;;;;;9.13;1.40;;;;;;;;;;5030569;28;20064;-68
2024/02/14 00:23:58;;;;;;;15.02;1.50;;;;;;;;;;5029041;28;20108;-68
2024/02/14 00:26:24;;;;;;;3.90;1.60;;;;;;;;;;5029890;28;20104;-68
2024/02/14 00:28:49;;;;;;;9.18;1.98;;;;;;;;;;5030292;28;20132;-67
2024/02/14 00:31:14;;;;;;;10.18;2.30;;;;;;;;;;5030101;28;20048;-68
2024/02/14 00:33:41;;;;;;;6.85;2.15;;;;;;;;;;5029825;28;20448;-67
2024/02/14 00:36:06;;;;;;;13.38;2.58;;;;;;;;;;5030115;28;20033;-69
2024/02/14 00:38:32;;;;;;;11.07;2.00;;;;;;;;;;5028903;28;20029;-68
2024/02/14 00:40:57;;;;;;;12.18;1.98;;;;;;;;;;5030054;28;20099;-67
2024/02/14 00:43:22;;;;;;;14.45;2.33;;;;;;;;;;5029859;28;20033;-67
2024/02/14 00:45:48;;;;;;;13.48;2.10;;;;;;;;;;5030078;28;20045;-68
2024/02/14 00:48:13;;;;;;;24.92;2.17;;;;;;;;;;5029507;28;20029;-68
2024/02/14 00:50:38;;;;;;;13.38;2.25;;;;;;;;;;5030046;28;20045;-68
2024/02/14 00:53:04;;;;;;;14.20;2.15;;;;;;;;;;5029686;28;20029;-69
2024/02/14 00:55:29;;;;;;;16.15;2.78;;;;;;;;;;5029551;28;20065;-67
2024/02/14 00:57:54;;;;;;;20.02;2.50;;;;;;;;;;5030109;28;20045;-68
2024/02/14 01:00:20;;;;;;;14.05;1.88;;;;;;;;;;5029897;28;20037;-68
2024/02/14 01:02:45;;;;;;;19.98;2.90;;;;;;;;;;5028694;28;20580;-68
2024/02/14 01:05:10;;;;;;;13.05;2.22;;;;;;;;;;5029641;28;20563;-68
2024/02/14 01:07:36;;;;;;;12.15;1.80;;;;;;;;;;5029296;28;20034;-68
2024/02/14 01:10:02;;;;;;;15.02;2.00;;;;;;;;;;5030552;28;20037;-68
2024/02/14 01:12:29;;;;;;;12.90;2.00;;;;;;;;;;5032816;28;20073;-68
2024/02/14 01:14:54;;;;;;;22.45;2.60;;;;;;;;;;5032728;28;20103;-67
2024/02/14 01:17:20;;;;;;;20.40;2.00;;;;;;;;;;5033429;28;20073;-68
2024/02/14 01:19:45;;;;;;;19.10;2.05;;;;;;;;;;5032820;28;20120;-68
2024/02/14 01:22:11;;;;;;;14.88;1.67;;;;;;;;;;5033473;28;20104;-68
2024/02/14 01:24:36;;;;;;;14.27;1.92;;;;;;;;;;5033758;28;20041;-68
2024/02/14 01:27:02;;;;;;;14.10;1.90;;;;;;;;;;5033398;28;20578;-68
2024/02/14 01:29:28;;;;;;;15.02;1.98;;;;;;;;;;5033496;28;20039;-69
2024/02/14 01:31:54;;;;;;;9.70;1.98;;;;;;;;;;5031934;28;20376;-67
2024/02/14 01:34:20;;;;;;;10.18;2.33;;;;;;;;;;5032881;28;20056;-67
2024/02/14 01:36:45;;;;;;;15.73;1.90;;;;;;;;;;5033274;28;20080;-68
2024/02/14 01:39:11;;;;;;;18.48;1.77;;;;;;;;;;5033512;28;20485;-68
2024/02/14 01:41:38;;;;;;;18.27;2.15;;;;;;;;;;5033063;28;20037;-68
2024/02/14 01:44:03;;;;;;;8.02;1.50;;;;;;;;;;5032213;28;20033;-67
2024/02/14 01:46:29;;;;;;;11.65;1.70;;;;;;;;;;5032716;28;20706;-68
2024/02/14 01:48:55;;;;;;;9.35;1.45;;;;;;;;;;5033316;28;20040;-68
2024/02/14 01:51:24;;;;;;;9.10;1.25;;;;;;;;;;5031762;28;20033;-68
2024/02/14 01:53:49;;;;;;;5.57;1.00;;;;;;;;;;5030833;28;20749;-67
2024/02/14 01:56:15;;;;;;;9.43;1.15;;;;;;;;;;5031819;28;20033;-68
2024/02/14 01:58:42;;;;;;;3.50;0.85;;;;;;;;;;5032771;28;20052;-67
2024/02/14 02:01:09;;;;;;;4.68;1.20;;;;;;;;;;5032490;28;20232;-68
2024/02/14 02:03:36;;;;;;;8.70;1.17;;;;;;;;;;5032968;28;20048;-68
2024/02/14 02:06:01;;;;;;;8.90;1.35;;;;;;;;;;5032060;28;20187;-69
2024/02/14 02:08:27;;;;;;;5.72;0.90;;;;;;;;;;5032786;28;20136;-68
2024/02/14 02:10:52;;;;;;;10.07;1.13;;;;;;;;;;5032737;28;20041;-67
2024/02/14 02:13:18;;;;;;;6.18;1.48;;;;;;;;;;5031930;28;20025;-68
2024/02/14 02:15:46;;;;;;;6.03;0.85;;;;;;;;;;5030467;28;20540;-68
2024/02/14 02:18:12;;;;;;;7.03;1.20;;;;;;;;;;5032107;28;20384;-68
2024/02/14 02:20:38;;;;;;;6.18;1.00;;;;;;;;;;5031917;28;20029;-68
2024/02/14 02:23:03;;;;;;;5.13;1.20;;;;;;;;;;5032346;28;20412;-68
2024/02/14 02:25:29;;;;;;;7.53;0.95;;;;;;;;;;5032337;28;20043;-68
2024/02/14 02:27:56;;;;;;;4.28;0.80;;;;;;;;;;5032423;28;20064;-67
2024/02/14 02:30:22;;;;;;;2.85;0.90;;;;;;;;;;5030655;28;20025;-68
2024/02/14 02:32:47;;;;;;;5.28;0.60;;;;;;;;;;5010712;28;20030;-68
2024/02/14 02:35:13;;;;;;;3.20;0.80;;;;;;;;;;5030331;28;20037;-68
2024/02/14 02:37:38;;;;;;;4.85;0.80;;;;;;;;;;5032087;28;20113;-68
2024/02/14 02:40:04;;;;;;;10.10;0.80;;;;;;;;;;5032550;28;20076;-67
2024/02/14 02:42:30;;;;;;;6.03;0.85;;;;;;;;;;5032052;28;20069;-69
2024/02/14 02:44:55;;;;;;;9.30;0.80;;;;;;;;;;5031915;28;20465;-67
2024/02/14 02:47:20;;;;;;;7.32;1.10;;;;;;;;;;5030099;28;20489;-67
2024/02/14 02:49:46;;;;;;;5.75;1.15;;;;;;;;;;5032199;28;20091;-68
2024/02/14 02:52:11;;;;;;;4.95;1.15;;;;;;;;;;5031761;28;20361;-68
2024/02/14 02:54:40;;;;;;;9.35;1.23;;;;;;;;;;5031605;28;20121;-69
2024/02/14 02:57:07;;;;;;;12.40;1.23;;;;;;;;;;5032107;28;20053;-70
2024/02/14 02:59:32;;;;;;;9.40;1.52;;;;;;;;;;5029082;28;20044;-69
2024/02/14 03:01:58;;;;;;;10.80;1.23;;;;;;;;;;5031237;28;20034;-70
2024/02/14 03:04:24;;;;;;;4.57;0.85;;;;;;;;;;5031823;28;20069;-69
2024/02/14 03:06:49;;;;;;;4.90;1.00;;;;;;;;;;5031183;28;20444;-69
2024/02/14 03:09:15;;;;;;;3.15;0.57;;;;;;;;;;5032154;28;20045;-69
2024/02/14 03:11:40;;;;;;;3.38;0.98;;;;;;;;;;5031682;28;20033;-69
2024/02/14 03:14:07;;;;;;;8.07;1.17;;;;;;;;;;5031928;28;20508;-69
2024/02/14 03:16:33;;;;;;;5.13;0.85;;;;;;;;;;5030918;28;20038;-70
2024/02/14 03:18:58;;;;;;;5.28;1.13;;;;;;;;;;5029409;28;20045;-69
2024/02/14 03:21:24;;;;;;;4.70;0.82;;;;;;;;;;5033111;28;20032;-69
2024/02/14 03:23:49;;;;;;;3.75;0.90;;;;;;;;;;5029578;28;20392;-69
2024/02/14 03:26:14;;;;;;;6.22;0.98;;;;;;;;;;5031249;28;20036;-69
2024/02/14 03:28:40;;;;;;;4.68;0.85;;;;;;;;;;5031261;28;20030;-69
2024/02/14 03:31:05;;;;;;;6.22;1.15;;;;;;;;;;5030123;28;20150;-69
2024/02/14 03:33:30;;;;;;;5.03;1.15;;;;;;;;;;5030876;28;20029;-68
2024/02/14 03:35:56;;;;;;;9.30;1.02;;;;;;;;;;5031153;28;20382;-69
2024/02/14 03:38:26;;;;;;;2.67;0.90;;;;;;;;;;5030596;28;20545;-68
2024/02/14 03:40:51;;;;;;;7.65;1.02;;;;;;;;;;5030077;28;20029;-67
2024/02/14 03:43:17;;;;;;;5.10;0.93;;;;;;;;;;5030574;28;20125;-68
2024/02/14 03:45:42;;;;;;;9.02;1.67;;;;;;;;;;5030391;28;20505;-68
2024/02/14 03:48:09;;;;;;;5.38;0.88;;;;;;;;;;5031090;28;20068;-68
2024/02/14 03:50:35;;;;;;;9.75;1.10;;;;;;;;;;5030965;28;20425;-68
2024/02/14 03:53:01;;;;;;;10.68;1.10;;;;;;;;;;5029159;28;20048;-68
2024/02/14 03:55:26;;;;;;;5.35;0.98;;;;;;;;;;5029622;28;20040;-68
2024/02/14 03:57:52;;;;;;;5.00;1.00;;;;;;;;;;5030840;28;20037;-67
2024/02/14 04:00:17;;;;;;;9.50;1.73;;;;;;;;;;5029705;28;20045;-68
2024/02/14 04:02:43;;;;;;;3.95;0.88;;;;;;;;;;5030532;28;20538;-67
2024/02/14 04:05:09;;;;;;;4.72;0.93;;;;;;;;;;5030560;28;20046;-68
2024/02/14 04:07:34;;;;;;;3.88;1.00;;;;;;;;;;5011720;28;20396;-68
2024/02/14 04:10:00;;;;;;;3.17;0.65;;;;;;;;;;5030498;28;20056;-68
2024/02/14 04:12:25;;;;;;;4.53;0.90;;;;;;;;;;5029943;28;20049;-67
2024/02/14 04:14:50;;;;;;;5.00;0.98;;;;;;;;;;5030620;28;20072;-68
2024/02/14 04:17:16;;;;;;;3.40;0.95;;;;;;;;;;5029930;28;20025;-67
2024/02/14 04:19:41;;;;;;;4.70;0.80;;;;;;;;;;5030579;28;20483;-68
2024/02/14 04:22:07;;;;;;;2.13;0.68;;;;;;;;;;5030252;28;20044;-68
2024/02/14 04:24:34;;;;;;;4.95;0.90;;;;;;;;;;5029004;28;20062;-68
2024/02/14 04:27:01;;;;;;;3.65;0.80;;;;;;;;;;5028501;28;20033;-68
2024/02/14 04:29:28;;;;;;;1.95;0.57;;;;;;;;;;5032406;28;20041;-68
2024/02/14 04:31:53;;;;;;;8.38;0.90;;;;;;;;;;5030039;28;20041;-68
2024/02/14 04:34:19;;;;;;;4.35;0.88;;;;;;;;;;5029360;28;20044;-68
2024/02/14 04:36:45;;;;;;;4.20;0.80;;;;;;;;;;5029136;28;20095;-68
2024/02/14 04:39:10;;;;;;;2.22;0.70;;;;;;;;;;5012548;28;20120;-68
2024/02/14 04:41:37;;;;;;;4.15;0.70;;;;;;;;;;5030021;28;20095;-67
2024/02/14 04:44:06;;;;;;;1.83;0.70;;;;;;;;;;5028259;28;20069;-67
2024/02/14 04:46:32;;;;;;;7.60;0.75;;;;;;;;;;5029454;28;20037;-68
2024/02/14 04:48:57;;;;;;;3.92;0.63;;;;;;;;;;5022767;28;20556;-67
2024/02/14 04:51:23;;;;;;;2.50;0.60;;;;;;;;;;5012230;28;20117;-69
2024/02/14 04:53:48;;;;;;;3.60;0.88;;;;;;;;;;5029795;28;20060;-68
2024/02/14 04:56:13;;;;;;;1.73;0.57;;;;;;;;;;5029856;28;20060;-68
2024/02/14 04:58:39;;;;;;;6.15;1.08;;;;;;;;;;5030081;28;20061;-67
2024/02/14 05:01:04;;;;;;;3.80;0.80;;;;;;;;;;5028625;28;20057;-68
2024/02/14 05:03:29;;;;;;;2.97;0.50;;;;;;;;;;5028972;28;20045;-68
2024/02/14 05:05:55;;;;;;;5.25;0.60;;;;;;;;;;5029308;28;20053;-67
2024/02/14 05:08:20;;;;;;;3.97;0.73;;;;;;;;;;5029187;28;20033;-69
2024/02/14 05:10:46;;;;;;;2.17;0.57;;;;;;;;;;5029293;28;20469;-68
2024/02/14 05:13:11;;;;;;;5.72;0.90;;;;;;;;;;5028747;28;20060;-68
2024/02/14 05:15:36;;;;;;;3.22;0.80;;;;;;;;;;5029910;28;20033;-68
2024/02/14 05:18:02;;;;;;;10.95;1.15;;;;;;;;;;5029484;28;20033;-67
2024/02/14 05:20:28;;;;;;;4.60;0.70;;;;;;;;;;5029898;28;20116;-69
2024/02/14 05:22:54;;;;;;;4.03;1.10;;;;;;;;;;5029830;28;20113;-67
2024/02/14 05:25:19;;;;;;;6.85;0.90;;;;;;;;;;5029443;28;20490;-68
2024/02/14 05:27:46;;;;;;;7.78;1.00;;;;;;;;;;5029635;28;20041;-69
2024/02/14 05:30:12;;;;;;;7.90;1.40;;;;;;;;;;5028336;28;20119;-68
2024/02/14 05:32:39;;;;;;;8.30;1.58;;;;;;;;;;5029235;28;20065;-68
2024/02/14 05:35:05;;;;;;;6.13;1.17;;;;;;;;;;5029999;28;20052;-68
2024/02/14 05:37:31;;;;;;;12.95;1.63;;;;;;;;;;5028668;28;20513;-67
2024/02/14 05:39:57;;;;;;;4.85;1.40;;;;;;;;;;5030751;28;20033;-69
2024/02/14 05:42:22;;;;;;;11.70;1.70;;;;;;;;;;5027816;28;20060;-69
2024/02/14 05:44:48;;;;;;;10.32;1.52;;;;;;;;;;5033022;28;20122;-68
2024/02/14 05:47:13;;;;;;;7.97;2.03;;;;;;;;;;5037941;28;20381;-68
2024/02/14 05:49:39;;;;;;;12.75;1.50;;;;;;;;;;5028659;28;20037;-68
2024/02/14 05:52:06;;;;;;;15.13;1.80;;;;;;;;;;5012006;28;20116;-68
2024/02/14 05:54:31;;;;;;;9.98;2.08;;;;;;;;;;5030258;28;20037;-68
2024/02/14 05:56:57;;;;;;;7.28;1.58;;;;;;;;;;5032326;28;20448;-68
2024/02/14 05:59:23;;;;;;;7.45;1.38;;;;;;;;;;5033005;28;20025;-69
2024/02/14 06:01:48;;;;;;;5.95;1.40;;;;;;;;;;5032725;28;20102;-68
2024/02/14 06:04:13;;;;;;;4.10;1.00;;;;;;;;;;5032012;28;20045;-68
2024/02/14 06:06:39;;;;;;;8.38;1.17;;;;;;;;;;5031837;28;20590;-68
2024/02/14 06:09:09;;;;;;;5.90;0.95;;;;;;;;;;5032764;28;20430;-68
2024/02/14 06:11:35;;;;;;;4.13;1.00;;;;;;;;;;5032238;28;20041;-68
2024/02/14 06:14:00;;;;;;;2.92;1.30;;;;;;;;;;5029903;28;20081;-68
2024/02/14 06:16:25;;;;;;;2.50;0.90;;;;;;;;;;5032434;28;20056;-68
2024/02/14 06:18:51;;;;;;;6.68;1.50;;;;;;;;;;5032484;28;20102;-68
2024/02/14 06:21:16;;;;;;;4.22;1.20;;;;;;;;;;5032383;28;20021;-68
2024/02/14 06:23:41;;;;;;;3.05;1.00;;;;;;;;;;5032856;28;20061;-67
2024/02/14 06:26:07;;;;;;;6.00;1.02;;;;;;;;;;5032282;28;20119;-67
2024/02/14 06:28:32;;;;;;;2.20;0.95;;;;;;;;;;5030742;28;20049;-67
2024/02/14 06:30:57;;;;;;;3.25;0.90;;;;;;;;;;5032268;28;20033;-67
2024/02/14 06:33:23;;;;;;;9.60;1.48;;;;;;;;;;5032249;28;20036;-68
2024/02/14 06:35:48;;;;;;;6.00;1.23;;;;;;;;;;5031843;28;20028;-69
2024/02/14 06:38:14;;;;;;;5.20;1.35;;;;;;;;;;5032173;28;20135;-67
2024/02/14 06:40:40;;;;;;;3.08;1.33;;;;;;;;;;5032090;28;20489;-68
2024/02/14 06:43:06;;;;;;;2.60;1.10;;;;;;;;;;5032035;28;20120;-67
2024/02/14 06:45:32;;;;;;;3.97;1.10;;;;;;;;;;5031392;28;20034;-67
2024/02/14 06:47:58;;;;;;;5.47;1.00;;;;;;;;;;5036732;28;20045;-67
2024/02/14 06:50:25;;;;;;;2.30;1.00;;;;;;;;;;5031706;28;20072;-67
2024/02/14 06:52:51;;;;;;;3.85;1.27;;;;;;;;;;5032379;28;20037;-68
2024/02/14 06:55:16;;;;;;;7.05;1.20;;;;;;;;;;5028825;28;20397;-68
2024/02/14 06:57:42;;;;;;;3.85;1.50;;;;;;;;;;5031336;28;20037;-67
2024/02/14 07:00:08;;;;;;;5.18;1.10;;;;;;;;;;5031986;28;20125;-68
2024/02/14 07:02:34;;;;;;;4.65;1.52;;;;;;;;;;5031587;28;20049;-69
2024/02/14 07:04:59;;;;;;;3.03;1.10;;;;;;;;;;5031638;28;20600;-68
2024/02/14 07:07:25;;;;;;;3.92;1.42;;;;;;;;;;5029707;28;20112;-69
2024/02/14 07:09:51;;;;;;;3.38;1.50;;;;;;;;;;5031925;28;20096;-68
2024/02/14 07:12:16;;;;;;;4.82;1.60;;;;;;;;;;5031479;28;20037;-68
2024/02/14 07:14:42;;;;;;;4.70;1.85;;;;;;;;;;5031316;28;20517;-68
2024/02/14 07:17:07;;;;;;;7.82;1.35;;;;;;;;;;5031518;28;20041;-68
2024/02/14 07:19:32;;;;;;;5.97;1.40;;;;;;;;;;5031580;28;20461;-67
2024/02/14 07:21:58;;;;;;;5.68;1.67;;;;;;;;;;5031030;28;20656;-67
2024/02/14 07:24:23;;;;;;;4.72;1.35;;;;;;;;;;5031370;28;20041;-68
2024/02/14 07:26:48;;;;;;;3.10;1.10;;;;;;;;;;5031100;28;20140;-67
2024/02/14 07:29:14;;;;;;;2.75;1.27;;;;;;;;;;5031287;28;20042;-67
2024/02/14 07:31:39;;;;;;;1.95;1.05;;;;;;;;;;5030951;28;20404;-68
2024/02/14 07:34:05;;;;;;;5.53;1.00;;;;;;;;;;5030832;28;20366;-67
2024/02/14 07:36:31;;;;;;;5.68;1.08;;;;;;;;;;5030682;28;20033;-68
2024/02/14 07:38:57;;;;;;;3.70;1.65;;;;;;;;;;5029852;28;20370;-68
2024/02/14 07:41:22;;;;;;;6.13;1.65;;;;;;;;;;5030370;28;20032;-68
2024/02/14 07:43:47;;;;;;;7.13;1.10;;;;;;;;;;5030167;28;20382;-69
2024/02/14 07:46:19;;;;;;;3.53;1.20;;;;;;;;;;5030975;28;20574;-69
2024/02/14 07:48:45;;;;;;;3.60;1.80;;;;;;;;;;5030177;28;20510;-68
2024/02/14 07:51:11;;;;;;;2.88;0.80;;;;;;;;;;5013036;28;20030;-68
2024/02/14 07:53:36;;;;;;;4.38;1.00;;;;;;;;;;5030075;28;20135;-69
2024/02/14 07:56:01;;;;;;;2.25;0.75;;;;;;;;;;5030647;28;20030;-69
2024/02/14 07:58:26;;;;;;;1.55;0.70;;;;;;;;;;5028988;28;20038;-68
2024/02/14 08:00:52;;;;;;;2.55;0.90;;;;;;;;;;5034174;28;20620;-68
2024/02/14 08:03:17;;;;;;;2.00;0.77;;;;;;;;;;5030217;28;20408;-68
2024/02/14 08:05:42;;;;;;;1.65;0.90;;;;;;;;;;5029151;28;20249;-68
2024/02/14 08:08:08;;;;;;;2.47;1.20;;;;;;;;;;5028908;28;20118;-68
2024/02/14 08:10:33;;;;;;;5.90;2.42;;;;;;;;;;5027906;28;20037;-67
2024/02/14 08:12:59;;;;;;;8.20;3.30;;;;;;;;;;5030282;28;20037;-67
2024/02/14 08:15:24;;;;;;;6.70;3.85;;;;;;;;;;5029541;28;20042;-68
2024/02/14 08:17:49;;;;;;;4.25;2.00;;;;;;;;;;5029831;28;20059;-68
2024/02/14 08:20:15;;;;;;;5.28;1.67;;;;;;;;;;5039421;28;20116;-68
2024/02/14 08:22:40;;;;;;;5.88;2.83;;;;;;;;;;5028993;28;20037;-69
2024/02/14 08:25:06;;;;;;;8.15;3.58;;;;;;;;;;5030298;28;20029;-68
2024/02/14 08:27:32;;;;;;;7.47;2.70;;;;;;;;;;5029804;28;20026;-68
2024/02/14 08:29:57;;;;;;;6.72;2.63;;;;;;;;;;5029231;28;20497;-68
2024/02/14 08:32:23;;;;;;;6.60;2.88;;;;;;;;;;5030245;28;20041;-68
2024/02/14 08:34:50;;;;;;;1.60;0.95;;;;;;;;;;5030012;28;20044;-68
2024/02/14 08:37:15;;;;;;;3.67;1.92;;;;;;;;;;5030215;28;20041;-68
2024/02/14 08:39:41;;;;;;;8.98;4.05;;;;;;;;;;5017698;28;20036;-68
2024/02/14 08:42:07;;;;;;;7.13;3.53;;;;;;;;;;5029742;28;20029;-68
2024/02/14 08:44:34;;;;;;;11.45;5.25;;;;;;;;;;5030111;28;20053;-68
2024/02/14 08:46:59;;;;;;;6.25;2.72;;;;;;;;;;5024881;28;20075;-67
2024/02/14 08:49:25;;;;;;;5.35;2.83;;;;;;;;;;5020694;28;20025;-68
2024/02/14 08:51:50;;;;;;;2.20;1.30;;;;;;;;;;5010142;28;20041;-68
2024/02/14 08:54:16;;;;;;;3.47;1.60;;;;;;;;;;5021193;28;20037;-67
2024/02/14 08:56:41;;;;;;;3.28;1.60;;;;;;;;;;5028824;28;20583;-68
2024/02/14 08:59:06;;;;;;;3.30;1.10;;;;;;;;;;5011223;28;20444;-68
2024/02/14 09:01:32;;;;;;;1.67;0.90;;;;;;;;;;5024977;28;20605;-68
2024/02/14 09:03:58;;;;;;;5.07;1.95;;;;;;;;;;5028276;28;20030;-67
2024/02/14 09:06:26;;;;;;;3.55;1.98;;;;;;;;;;5027198;28;20489;-68
2024/02/14 09:08:52;;;;;;;1.92;0.73;;;;;;;;;;5027863;28;20489;-68
2024/02/14 09:11:17;;;;;;;1.25;0.68;;;;;;;;;;5020012;28;20041;-68
2024/02/14 09:13:43;;;;;;;3.85;1.35;;;;;;;;;;5024596;28;20107;-68
2024/02/14 09:16:09;;;;;;;1.45;0.70;;;;;;;;;;5029837;28;20033;-68
2024/02/14 09:18:35;;;;;;;1.73;0.60;;;;;;;;;;5029724;28;20033;-68
2024/02/14 09:21:01;;;;;;;3.35;0.50;;;;;;;;;;5012371;28;20107;-68
2024/02/14 09:23:26;;;;;;;3.38;0.60;;;;;;;;;;5029381;28;20029;-68
2024/02/14 09:25:52;;;;;;;2.95;0.50;;;;;;;;;;5029738;28;20033;-67
2024/02/14 09:28:17;;;;;;;1.30;0.70;;;;;;;;;;5029517;28;20052;-67
2024/02/14 09:30:42;;;;;;;8.20;3.50;;;;;;;;;;5032332;28;20033;-67
2024/02/14 09:33:08;;;;;;;10.77;4.85;;;;;;;;;;5033454;28;20044;-68
2024/02/14 09:35:35;;;;;;;3.58;1.50;;;;;;;;;;5032941;28;20106;-68
2024/02/14 09:38:01;;;;;;;4.25;0.60;;;;;;;;;;5033255;28;20396;-67
2024/02/14 09:40:26;;;;;;;1.30;0.50;;;;;;;;;;5023330;28;20086;-67
2024/02/14 09:42:57;;;;;;;0.32;0.30;;;;;;;;;;5031372;28;20041;-68
2024/02/14 09:45:24;;;;;;;1.23;0.30;;;;;;;;;;5032667;28;20037;-68
2024/02/14 09:47:51;;;;;;;0.75;0.40;;;;;;;;;;5026163;28;20050;-69
2024/02/14 09:50:17;;;;;;;1.00;0.52;;;;;;;;;;5015038;28;20509;-67
2024/02/14 09:52:43;;;;;;;0.50;0.22;;;;;;;;;;5010731;28;20102;-67
2024/02/14 09:55:09;;;;;;;0.93;0.32;;;;;;;;;;5029578;28;20049;-68
2024/02/14 09:57:36;;;;;;;1.95;0.40;;;;;;;;;;5028716;28;20439;-67
2024/02/14 10:00:02;;;;;;;0.60;0.35;;;;;;;;;;5008470;28;20122;-68
2024/02/14 10:02:30;;;;;;;0.90;0.50;;;;;;;;;;5027971;28;20029;-68
2024/02/14 10:04:55;;;;;;;0.30;0.30;;;;;;;;;;5027705;28;20060;-68
2024/02/14 10:07:20;;;;;;;1.85;0.50;;;;;;;;;;5028687;28;20049;-67
2024/02/14 10:09:46;;;;;;;2.53;0.40;;;;;;;;;;5026050;28;20033;-67
2024/02/14 10:12:11;;;;;;;2.65;0.40;;;;;;;;;;5027686;28;20385;-68
2024/02/14 10:14:37;;;;;;;1.70;0.55;;;;;;;;;;5027185;28;20025;-68
2024/02/14 10:17:04;;;;;;;1.63;0.40;;;;;;;;;;5028109;28;20021;-68
2024/02/14 10:19:30;;;;;;;2.20;0.40;;;;;;;;;;5024814;28;20048;-68
2024/02/14 10:21:57;;;;;;;1.00;0.32;;;;;;;;;;5027830;28;20037;-68
2024/02/14 10:24:25;;;;;;;3.03;0.50;;;;;;;;;;5020498;28;20034;-68
2024/02/14 10:26:50;;;;;;;1.05;0.40;;;;;;;;;;5027215;28;20103;-68
2024/02/14 10:29:15;;;;;;;3.65;0.60;;;;;;;;;;5026587;28;20033;-67
2024/02/14 10:31:41;;;;;;;1.50;0.60;;;;;;;;;;5016964;28;20171;-67
2024/02/14 10:34:06;;;;;;;9.13;0.80;;;;;;;;;;5027430;28;20119;-68
2024/02/14 10:36:34;;;;;;;3.47;0.80;;;;;;;;;;5025987;28;20037;-68
2024/02/14 10:39:00;;;;;;;4.00;1.42;;;;;;;;;;5023732;28;20049;-68
2024/02/14 10:41:26;;;;;;;3.08;0.70;;;;;;;;;;5026501;28;20532;-68
2024/02/14 10:43:52;;;;;;;3.85;0.70;;;;;;;;;;5027478;28;20107;-69
2024/02/14 10:46:25;;;;;;;6.25;1.23;;;;;;;;;;5027168;28;20457;-69
2024/02/14 10:48:52;;;;;;;;;;;;;;;;;;5026855;28;20124;-68
2024/02/14 10:51:19;;;;;;;4.20;0.82;;;;;;;;;;5026498;28;19967;-67
2024/02/14 10:53:45;;;;;;;6.43;0.90;;;;;;;;;;5025956;28;20103;-68
2024/02/14 10:56:13;;;;;;;7.35;1.15;;;;;;;;;;5026855;28;20404;-69
2024/02/14 10:58:39;;;;;;;4.55;0.98;;;;;;;;;;5025846;28;20033;-68
2024/02/14 11:01:07;;;;;;;2.83;0.90;;;;;;;;;;5020781;28;20283;-69
2024/02/14 11:03:33;;;;;;;6.93;1.23;;;;;;;;;;5024244;28;20141;-68
2024/02/14 11:06:03;;;;;;;2.28;1.02;;;;;;;;;;5025144;28;20140;-69
2024/02/14 11:08:30;;;;;;;8.23;1.60;;;;;;;;;;5027232;28;20046;-68
2024/02/14 11:10:58;;;;;;;8.95;1.70;;;;;;;;;;5027813;28;20037;-68
2024/02/14 11:13:32;;;;;;;7.10;1.65;;;;;;;;;;5030873;28;20195;-67
2024/02/14 11:16:00;;;;;;;9.77;1.73;;;;;;;;;;5012793;28;20625;-67
2024/02/14 11:18:26;;;;;;;7.63;1.63;;;;;;;;;;5030550;28;20635;-68
2024/02/14 11:20:52;;;;;;;9.15;1.73;;;;;;;;;;5029144;28;20463;-68
2024/02/14 11:23:21;;;;;;;13.38;2.03;;;;;;;;;;5030283;28;20041;-68
2024/02/14 11:25:48;;;;;;;6.10;1.58;;;;;;;;;;5030337;28;20038;-67
2024/02/14 11:28:14;;;;;;;9.63;2.72;;;;;;;;;;5030335;28;20033;-68
2024/02/14 11:30:40;;;;;;;8.00;2.97;;;;;;;;;;5028714;28;20133;-68
2024/02/14 11:33:20;;;;;;;19.95;8.40;;;;;;;;;;5026514;28;20030;-69
2024/02/14 11:35:53;;;;;;;10.27;4.68;;;;;;;;;;5021072;28;20048;-68
2024/02/14 11:38:19;;;;;;;10.07;3.00;;;;;;;;;;5025609;28;20393;-68
2024/02/14 11:40:45;;;;;;;7.88;2.08;;;;;;;;;;5028147;28;20069;-68
2024/02/14 11:43:14;;;;;;;10.55;1.60;;;;;;;;;;5028882;28;20052;-67
2024/02/14 11:45:41;;;;;;;7.72;1.67;;;;;;;;;;5010839;28;20399;-67
2024/02/14 11:48:08;;;;;;;11.73;1.65;;;;;;;;;;5028521;28;20037;-68
2024/02/14 11:50:34;;;;;;;16.25;2.15;;;;;;;;;;5029212;28;20044;-69
2024/02/14 11:52:59;;;;;;;10.77;2.00;;;;;;;;;;5027509;28;20037;-68
2024/02/14 11:55:29;;;;;;;13.52;2.30;;;;;;;;;;5029525;28;20859;-68
2024/02/14 11:57:54;;;;;;;8.80;1.83;;;;;;;;;;5027987;28;20056;-68
2024/02/14 12:00:20;;;;;;;10.60;2.10;;;;;;;;;;5026847;28;20033;-68
2024/02/14 12:02:45;;;;;;;9.70;1.60;;;;;;;;;;5028696;28;20072;-67
2024/02/14 12:05:11;;;;;;;10.90;1.67;;;;;;;;;;5008067;28;20049;-68
2024/02/14 12:07:36;;;;;;;14.63;1.88;;;;;;;;;;5024536;28;20608;-69
2024/02/14 12:10:03;;;;;;;8.25;1.35;;;;;;;;;;5026013;28;20041;-68
2024/02/14 12:12:28;;;;;;;13.95;1.80;;;;;;;;;;5025864;28;20045;-68
2024/02/14 12:14:53;;;;;;;11.88;1.92;;;;;;;;;;5023349;28;20033;-68
2024/02/14 12:17:19;;;;;;;13.43;1.73;;;;;;;;;;5025542;28;20041;-68
2024/02/14 12:19:44;;;;;;;14.70;1.60;;;;;;;;;;5025255;28;20061;-68
2024/02/14 12:22:17;;;;;;;8.98;1.90;;;;;;;;;;5025786;28;20043;-67
2024/02/14 12:24:44;;;;;;;13.50;1.85;;;;;;;;;;5021114;28;20956;-68
2024/02/14 12:27:09;;;;;;;8.00;2.00;;;;;;;;;;5025569;28;20542;-68
2024/02/14 12:29:35;;;;;;;10.60;1.63;;;;;;;;;;5025345;28;20032;-68
2024/02/14 12:32:06;;;;;;;9.25;1.63;;;;;;;;;;5025205;28;20072;-68
2024/02/14 12:34:33;;;;;;;18.65;1.80;;;;;;;;;;5024841;28;20044;-68
2024/02/14 12:36:59;;;;;;;10.95;2.15;;;;;;;;;;5025194;28;20041;-68
2024/02/14 12:39:26;;;;;;;9.20;1.70;;;;;;;;;;5025516;28;20091;-69
2024/02/14 12:41:52;;;;;;;18.58;3.53;;;;;;;;;;5024898;28;20567;-68
2024/02/14 12:44:17;;;;;;;12.13;2.05;;;;;;;;;;5024294;28;20025;-68
2024/02/14 12:46:43;;;;;;;14.35;2.45;;;;;;;;;;5023077;28;20049;-67
2024/02/14 12:49:09;;;;;;;8.13;1.95;;;;;;;;;;5024062;28;20041;-68
2024/02/14 12:51:38;;;;;;;18.08;2.75;;;;;;;;;;5024955;28;20029;-68
2024/02/14 12:54:05;;;;;;;12.93;2.90;;;;;;;;;;5022277;28;20128;-69
2024/02/14 12:56:31;;;;;;;12.30;2.17;;;;;;;;;;5024844;28;20045;-68
2024/02/14 12:58:56;;;;;;;12.85;1.98;;;;;;;;;;5024542;28;20962;-68
2024/02/14 13:01:22;;;;;;;10.25;1.90;;;;;;;;;;5023587;28;20037;-67
2024/02/14 13:03:47;;;;;;;10.38;2.30;;;;;;;;;;5024830;28;20099;-68
2024/02/14 13:06:14;;;;;;;7.30;1.40;;;;;;;;;;5024970;28;20048;-68
2024/02/14 13:08:39;;;;;;;12.40;1.92;;;;;;;;;;5026804;28;20049;-68
2024/02/14 13:11:05;;;;;;;8.75;1.77;;;;;;;;;;5027502;28;20039;-68
2024/02/14 13:13:30;;;;;;;10.60;1.65;;;;;;;;;;5027524;28;20060;-68
2024/02/14 13:15:56;;;;;;;14.48;1.85;;;;;;;;;;5013604;28;20045;-69
2024/02/14 13:18:21;;;;;;;11.85;1.90;;;;;;;;;;5026660;28;20041;-68
2024/02/14 13:20:46;;;;;;;11.68;2.72;;;;;;;;;;5034954;28;20148;-68
2024/02/14 13:23:14;;;;;;;11.98;2.38;;;;;;;;;;5029120;28;20073;-68
2024/02/14 13:25:39;;;;;;;7.05;1.75;;;;;;;;;;5026460;28;20492;-68
2024/02/14 13:28:05;;;;;;;14.60;2.35;;;;;;;;;;5009637;28;20044;-69
2024/02/14 13:30:30;;;;;;;15.38;2.20;;;;;;;;;;5026096;28;20041;-68
2024/02/14 13:32:56;;;;;;;13.75;2.17;;;;;;;;;;5028947;28;20040;-69
2024/02/14 13:35:21;;;;;;;17.83;3.08;;;;;;;;;;5026984;28;20117;-69
2024/02/14 13:37:47;;;;;;;11.63;2.50;;;;;;;;;;5027102;28;20083;-68
2024/02/14 13:40:12;;;;;;;10.82;2.60;;;;;;;;;;5029943;28;20075;-68
2024/02/14 13:42:38;;;;;;;12.30;2.10;;;;;;;;;;5026444;28;20136;-68
2024/02/14 13:45:10;;;;;;;13.52;2.42;;;;;;;;;;5027923;28;20037;-68
2024/02/14 13:47:39;;;;;;;8.80;2.20;;;;;;;;;;5028099;28;20067;-69
2024/02/14 13:50:09;;;;;;;11.77;2.58;;;;;;;;;;5027881;28;20258;-68
2024/02/14 13:52:35;;;;;;;10.95;2.58;;;;;;;;;;5028410;28;20033;-68
2024/02/14 13:55:02;;;;;;;14.07;3.15;;;;;;;;;;5026959;28;20025;-68
2024/02/14 13:57:29;;;;;;;8.77;2.78;;;;;;;;;;5026692;28;20033;-69
2024/02/14 13:59:54;;;;;;;10.93;2.08;;;;;;;;;;5025876;28;20095;-68
2024/02/14 14:02:20;;;;;;;12.25;2.72;;;;;;;;;;5027097;28;20026;-67
2024/02/14 14:04:45;;;;;;;6.90;1.83;;;;;;;;;;4987998;28;1118299;-68
2024/02/14 14:07:11;;;;;;;9.85;1.90;;;;;;;;;;5027419;28;20037;-67
2024/02/14 14:09:37;;;;;;;8.73;1.67;;;;;;;;;;5022348;28;20520;-68
2024/02/14 14:12:02;;;;;;;13.80;3.13;;;;;;;;;;5026354;28;20048;-68
2024/02/14 14:14:29;;;;;;;6.32;1.50;;;;;;;;;;5010157;28;20067;-68
2024/02/14 14:16:54;;;;;;;8.38;1.80;;;;;;;;;;5026229;28;20033;-68
2024/02/14 14:19:19;;;;;;;5.75;2.25;;;;;;;;;;5026762;28;20030;-70
2024/02/14 14:21:45;;;;;;;8.00;1.73;;;;;;;;;;5026878;28;20040;-69
2024/02/14 14:24:10;;;;;;;7.88;2.20;;;;;;;;;;5027345;28;20055;-69
2024/02/14 14:26:35;;;;;;;9.45;1.77;;;;;;;;;;5027065;28;20022;-69
2024/02/14 14:29:01;;;;;;;6.60;1.80;;;;;;;;;;5027508;28;20392;-68
2024/02/14 14:31:27;;;;;;;10.77;2.40;;;;;;;;;;5025888;28;20373;-69
2024/02/14 14:33:53;;;;;;;7.68;2.13;;;;;;;;;;5027793;28;20052;-68